This is the latest recevied weather packets stored in our database for station/object MKSRDG. If no packets are shown the sender has not sent any weather packets the latest 10 day(s).
| Time | Temp. | Humidity | Pressure | Rain* | Wind** | Luminosity | Snow |
|---|---|---|---|---|---|---|---|
| 1777692296 | 13.33° C | 80% | 1014.2 hPa | 0 mm | - | 0 W/m² | - |
| 1777691396 | 14.44° C | 79% | 1014.1 hPa | 0 mm | - | 7 W/m² | - |
| 1777690496 | 14.44° C | 76% | 1013.9 hPa | 0 mm | - | 18 W/m² | - |
| 1777689596 | 15.56° C | 77% | 1013.8 hPa | 0 mm | - | 32 W/m² | - |
| 1777688696 | 15.56° C | 76% | 1013.8 hPa | 0 mm | - | 47 W/m² | - |
| 1777687796 | 16.67° C | 74% | 1013.6 hPa | 0 mm | - | 90 W/m² | - |
| 1777686896 | 16.67° C | 74% | 1013.8 hPa | 0 mm | - | 127 W/m² | - |
| 1777685996 | 16.67° C | 73% | 1013.7 hPa | 0 mm | - | 102 W/m² | - |
| 1777685096 | 17.78° C | 71% | 1013.6 hPa | 0 mm | - | 209 W/m² | - |
| 1777684196 | 17.78° C | 72% | 1013.7 hPa | 0 mm | - | 355 W/m² | - |
| 1777683296 | 17.78° C | 68% | 1013.8 hPa | 0 mm | - | 376 W/m² | - |
| 1777682396 | 17.78° C | 70% | 1013.9 hPa | 0 mm | - | 420 W/m² | - |
| 1777681496 | 17.78° C | 67% | 1014 hPa | 0 mm | - | 403 W/m² | - |
| 1777680596 | 18.33° C | 65% | 1014 hPa | 0 mm | - | 475 W/m² | - |
| 1777679696 | 18.33° C | 65% | 1014 hPa | 0 mm | - | 550 W/m² | - |
| 1777678796 | 18.33° C | 64% | 1014.1 hPa | 0 mm | - | 628 W/m² | - |
| 1777677896 | 18.33° C | 63% | 1014.1 hPa | 0 mm | - | 684 W/m² | - |
| 1777676996 | 18.33° C | 66% | 1014.1 hPa | 0 mm | - | 708 W/m² | - |
| 1777676096 | 18.33° C | 64% | 1014.4 hPa | 0 mm | - | 693 W/m² | - |
| 1777675196 | 17.78° C | 66% | 1014.5 hPa | 0 mm | - | 682 W/m² | - |
| 1777674297 | 17.78° C | 64% | 1014.6 hPa | 0 mm | - | 652 W/m² | - |
| 1777673397 | 17.78° C | 68% | 1014.8 hPa | 0 mm | - | 671 W/m² | - |
| 1777672496 | 17.78° C | 68% | 1014.8 hPa | 0 mm | - | 717 W/m² | - |
| 1777671597 | 16.67° C | 69% | 1015 hPa | 0 mm | - | 766 W/m² | - |
| 1777670697 | 17.22° C | 73% | 1015.1 hPa | 0 mm | - | 733 W/m² | - |
* Rain latest hour (hover to see other rain measurements)
** Current wind speed in m/s (hover to see current wind gust speed)